sensor_id;sensor_type;location;lat;lon;timestamp;pressure;altitude;pressure_sealevel;temperature
20058;BMP180;10189;49.546;7.906;2022-07-23T00:00:35;98087.00;;;22.40
20058;BMP180;10189;49.546;7.906;2022-07-23T00:03:01;98101.00;;;22.10
20058;BMP180;10189;49.546;7.906;2022-07-23T00:05:27;98087.00;;;22.00
20058;BMP180;10189;49.546;7.906;2022-07-23T00:07:52;98090.00;;;21.90
20058;BMP180;10189;49.546;7.906;2022-07-23T00:10:18;98099.00;;;22.10
20058;BMP180;10189;49.546;7.906;2022-07-23T00:12:44;98099.00;;;22.00
20058;BMP180;10189;49.546;7.906;2022-07-23T00:15:10;98108.00;;;22.10
20058;BMP180;10189;49.546;7.906;2022-07-23T00:17:36;98099.00;;;22.10
20058;BMP180;10189;49.546;7.906;2022-07-23T00:20:03;98100.00;;;22.20
20058;BMP180;10189;49.546;7.906;2022-07-23T00:22:29;98100.00;;;22.20
20058;BMP180;10189;49.546;7.906;2022-07-23T00:24:56;98117.00;;;22.00
20058;BMP180;10189;49.546;7.906;2022-07-23T00:27:23;98142.00;;;22.00
20058;BMP180;10189;49.546;7.906;2022-07-23T00:29:49;98133.00;;;21.90
20058;BMP180;10189;49.546;7.906;2022-07-23T00:32:15;98145.00;;;21.90
20058;BMP180;10189;49.546;7.906;2022-07-23T00:34:41;98143.00;;;21.90
20058;BMP180;10189;49.546;7.906;2022-07-23T00:37:07;98143.00;;;22.00
20058;BMP180;10189;49.546;7.906;2022-07-23T00:39:33;98126.00;;;21.90
20058;BMP180;10189;49.546;7.906;2022-07-23T00:41:59;98111.00;;;21.80
20058;BMP180;10189;49.546;7.906;2022-07-23T00:44:27;98101.00;;;21.80
20058;BMP180;10189;49.546;7.906;2022-07-23T00:46:57;98087.00;;;21.90
20058;BMP180;10189;49.546;7.906;2022-07-23T00:49:29;98094.00;;;21.80
20058;BMP180;10189;49.546;7.906;2022-07-23T00:51:57;98089.00;;;21.80
20058;BMP180;10189;49.546;7.906;2022-07-23T00:54:25;98096.00;;;21.90
20058;BMP180;10189;49.546;7.906;2022-07-23T00:56:51;98098.00;;;21.90
20058;BMP180;10189;49.546;7.906;2022-07-23T00:59:17;98069.00;;;21.90
20058;BMP180;10189;49.546;7.906;2022-07-23T01:01:44;98034.00;;;21.90
20058;BMP180;10189;49.546;7.906;2022-07-23T01:04:11;98027.00;;;21.80
20058;BMP180;10189;49.546;7.906;2022-07-23T01:06:38;98076.00;;;21.70
20058;BMP180;10189;49.546;7.906;2022-07-23T01:09:06;98075.00;;;21.50
20058;BMP180;10189;49.546;7.906;2022-07-23T01:11:35;98079.00;;;21.60
20058;BMP180;10189;49.546;7.906;2022-07-23T01:14:16;98083.00;;;21.80
20058;BMP180;10189;49.546;7.906;2022-07-23T01:16:45;98097.00;;;21.80
20058;BMP180;10189;49.546;7.906;2022-07-23T01:19:12;98106.00;;;21.80
20058;BMP180;10189;49.546;7.906;2022-07-23T01:21:46;98114.00;;;21.70
20058;BMP180;10189;49.546;7.906;2022-07-23T01:24:13;98127.00;;;21.80
20058;BMP180;10189;49.546;7.906;2022-07-23T01:26:48;98172.00;;;21.70
20058;BMP180;10189;49.546;7.906;2022-07-23T01:29:14;98171.00;;;21.60
20058;BMP180;10189;49.546;7.906;2022-07-23T01:31:42;98165.00;;;21.50
20058;BMP180;10189;49.546;7.906;2022-07-23T01:34:09;98165.00;;;21.60
20058;BMP180;10189;49.546;7.906;2022-07-23T01:36:37;98155.00;;;21.60
20058;BMP180;10189;49.546;7.906;2022-07-23T01:39:05;98129.00;;;21.70
20058;BMP180;10189;49.546;7.906;2022-07-23T01:41:31;98106.00;;;21.60
20058;BMP180;10189;49.546;7.906;2022-07-23T01:43:58;98108.00;;;21.60
20058;BMP180;10189;49.546;7.906;2022-07-23T01:46:26;98103.00;;;21.80
20058;BMP180;10189;49.546;7.906;2022-07-23T01:48:52;98113.00;;;21.60
20058;BMP180;10189;49.546;7.906;2022-07-23T01:51:40;98102.00;;;21.70
20058;BMP180;10189;49.546;7.906;2022-07-23T01:54:32;98110.00;;;21.80
20058;BMP180;10189;49.546;7.906;2022-07-23T01:56:59;98096.00;;;21.80
20058;BMP180;10189;49.546;7.906;2022-07-23T01:59:26;98088.00;;;21.80
20058;BMP180;10189;49.546;7.906;2022-07-23T02:01:53;98079.00;;;21.80
20058;BMP180;10189;49.546;7.906;2022-07-23T02:04:21;98056.00;;;21.90
20058;BMP180;10189;49.546;7.906;2022-07-23T02:06:48;98058.00;;;21.90
20058;BMP180;10189;49.546;7.906;2022-07-23T02:09:14;98043.00;;;21.90
20058;BMP180;10189;49.546;7.906;2022-07-23T02:11:41;98064.00;;;21.90
20058;BMP180;10189;49.546;7.906;2022-07-23T02:14:07;98054.00;;;21.70
20058;BMP180;10189;49.546;7.906;2022-07-23T02:16:33;98058.00;;;21.80
20058;BMP180;10189;49.546;7.906;2022-07-23T02:19:02;98057.00;;;21.80
20058;BMP180;10189;49.546;7.906;2022-07-23T02:21:29;98041.00;;;21.80
20058;BMP180;10189;49.546;7.906;2022-07-23T02:23:54;98051.00;;;21.80
20058;BMP180;10189;49.546;7.906;2022-07-23T02:26:20;98070.00;;;21.30
20058;BMP180;10189;49.546;7.906;2022-07-23T02:28:49;98087.00;;;21.00
20058;BMP180;10189;49.546;7.906;2022-07-23T02:31:15;98096.00;;;20.70
20058;BMP180;10189;49.546;7.906;2022-07-23T02:33:41;98090.00;;;20.70
20058;BMP180;10189;49.546;7.906;2022-07-23T02:36:07;98091.00;;;20.80
20058;BMP180;10189;49.546;7.906;2022-07-23T02:38:33;98092.00;;;20.90
20058;BMP180;10189;49.546;7.906;2022-07-23T02:40:59;98099.00;;;21.00
20058;BMP180;10189;49.546;7.906;2022-07-23T02:43:25;98106.00;;;21.00
20058;BMP180;10189;49.546;7.906;2022-07-23T02:45:50;98114.00;;;21.00
20058;BMP180;10189;49.546;7.906;2022-07-23T02:48:16;98118.00;;;21.00
20058;BMP180;10189;49.546;7.906;2022-07-23T02:50:44;98113.00;;;21.10
20058;BMP180;10189;49.546;7.906;2022-07-23T02:53:13;98120.00;;;21.10
20058;BMP180;10189;49.546;7.906;2022-07-23T02:55:41;98113.00;;;21.20
20058;BMP180;10189;49.546;7.906;2022-07-23T02:58:06;98100.00;;;21.10
20058;BMP180;10189;49.546;7.906;2022-07-23T03:00:32;98100.00;;;21.10
20058;BMP180;10189;49.546;7.906;2022-07-23T03:02:58;98099.00;;;21.20
20058;BMP180;10189;49.546;7.906;2022-07-23T03:05:25;98098.00;;;21.30
20058;BMP180;10189;49.546;7.906;2022-07-23T03:07:51;98098.00;;;21.40
20058;BMP180;10189;49.546;7.906;2022-07-23T03:10:17;98114.00;;;21.40
20058;BMP180;10189;49.546;7.906;2022-07-23T03:12:44;98110.00;;;21.50
20058;BMP180;10189;49.546;7.906;2022-07-23T03:15:10;98113.00;;;21.50
20058;BMP180;10189;49.546;7.906;2022-07-23T03:17:36;98111.00;;;21.50
20058;BMP180;10189;49.546;7.906;2022-07-23T03:20:03;98091.00;;;21.50
20058;BMP180;10189;49.546;7.906;2022-07-23T03:22:29;98109.00;;;21.50
20058;BMP180;10189;49.546;7.906;2022-07-23T03:24:55;98096.00;;;21.40
20058;BMP180;10189;49.546;7.906;2022-07-23T03:27:29;98100.00;;;21.50
20058;BMP180;10189;49.546;7.906;2022-07-23T03:29:58;98097.00;;;21.60
20058;BMP180;10189;49.546;7.906;2022-07-23T03:32:25;98100.00;;;21.50
20058;BMP180;10189;49.546;7.906;2022-07-23T03:34:51;98100.00;;;21.50
20058;BMP180;10189;49.546;7.906;2022-07-23T03:37:18;98107.00;;;21.50
20058;BMP180;10189;49.546;7.906;2022-07-23T03:39:46;98115.00;;;21.20
20058;BMP180;10189;49.546;7.906;2022-07-23T03:42:12;98107.00;;;21.20
20058;BMP180;10189;49.546;7.906;2022-07-23T03:44:38;98119.00;;;21.30
20058;BMP180;10189;49.546;7.906;2022-07-23T03:47:05;98120.00;;;21.30
20058;BMP180;10189;49.546;7.906;2022-07-23T03:49:33;98139.00;;;21.20
20058;BMP180;10189;49.546;7.906;2022-07-23T03:51:59;98156.00;;;21.00
20058;BMP180;10189;49.546;7.906;2022-07-23T03:54:26;98161.00;;;20.90
20058;BMP180;10189;49.546;7.906;2022-07-23T03:56:52;98156.00;;;20.90
20058;BMP180;10189;49.546;7.906;2022-07-23T03:59:18;98151.00;;;20.90
20058;BMP180;10189;49.546;7.906;2022-07-23T04:01:44;98150.00;;;20.80
20058;BMP180;10189;49.546;7.906;2022-07-23T04:04:11;98163.00;;;20.90
20058;BMP180;10189;49.546;7.906;2022-07-23T04:06:39;98169.00;;;20.90
20058;BMP180;10189;49.546;7.906;2022-07-23T04:09:05;98159.00;;;20.90
20058;BMP180;10189;49.546;7.906;2022-07-23T04:11:32;98137.00;;;21.00
20058;BMP180;10189;49.546;7.906;2022-07-23T04:13:58;98132.00;;;21.00
20058;BMP180;10189;49.546;7.906;2022-07-23T04:16:24;98132.00;;;20.70
20058;BMP180;10189;49.546;7.906;2022-07-23T04:18:50;98140.00;;;20.70
20058;BMP180;10189;49.546;7.906;2022-07-23T04:21:20;98130.00;;;20.60
20058;BMP180;10189;49.546;7.906;2022-07-23T04:23:46;98129.00;;;20.80
20058;BMP180;10189;49.546;7.906;2022-07-23T04:26:13;98146.00;;;20.80
20058;BMP180;10189;49.546;7.906;2022-07-23T04:28:39;98152.00;;;20.90
20058;BMP180;10189;49.546;7.906;2022-07-23T04:31:05;98151.00;;;20.90
20058;BMP180;10189;49.546;7.906;2022-07-23T04:33:33;98154.00;;;21.00
20058;BMP180;10189;49.546;7.906;2022-07-23T04:36:04;98150.00;;;21.10
20058;BMP180;10189;49.546;7.906;2022-07-23T04:38:30;98157.00;;;21.10
20058;BMP180;10189;49.546;7.906;2022-07-23T04:41:00;98177.00;;;21.10
20058;BMP180;10189;49.546;7.906;2022-07-23T04:43:26;98189.00;;;21.00
20058;BMP180;10189;49.546;7.906;2022-07-23T04:45:54;98200.00;;;21.10
20058;BMP180;10189;49.546;7.906;2022-07-23T04:48:20;98211.00;;;21.10
20058;BMP180;10189;49.546;7.906;2022-07-23T04:50:48;98225.00;;;21.10
20058;BMP180;10189;49.546;7.906;2022-07-23T04:53:18;98229.00;;;21.10
20058;BMP180;10189;49.546;7.906;2022-07-23T04:55:46;98220.00;;;20.80
20058;BMP180;10189;49.546;7.906;2022-07-23T04:58:12;98229.00;;;20.90
20058;BMP180;10189;49.546;7.906;2022-07-23T05:00:38;98226.00;;;21.00
20058;BMP180;10189;49.546;7.906;2022-07-23T05:03:04;98230.00;;;21.00
20058;BMP180;10189;49.546;7.906;2022-07-23T05:05:31;98227.00;;;21.20
20058;BMP180;10189;49.546;7.906;2022-07-23T05:08:06;98228.00;;;21.20
20058;BMP180;10189;49.546;7.906;2022-07-23T05:10:36;98229.00;;;21.10
20058;BMP180;10189;49.546;7.906;2022-07-23T05:13:02;98220.00;;;20.90
20058;BMP180;10189;49.546;7.906;2022-07-23T05:15:28;98218.00;;;21.00
20058;BMP180;10189;49.546;7.906;2022-07-23T05:17:55;98218.00;;;21.00
20058;BMP180;10189;49.546;7.906;2022-07-23T05:20:21;98228.00;;;21.00
20058;BMP180;10189;49.546;7.906;2022-07-23T05:22:47;98213.00;;;21.10
20058;BMP180;10189;49.546;7.906;2022-07-23T05:25:13;98221.00;;;21.30
20058;BMP180;10189;49.546;7.906;2022-07-23T05:27:39;98208.00;;;21.60
20058;BMP180;10189;49.546;7.906;2022-07-23T05:30:05;98211.00;;;21.70
20058;BMP180;10189;49.546;7.906;2022-07-23T05:32:34;98206.00;;;21.80
20058;BMP180;10189;49.546;7.906;2022-07-23T05:35:11;98207.00;;;21.90
20058;BMP180;10189;49.546;7.906;2022-07-23T05:37:41;98202.00;;;22.10
20058;BMP180;10189;49.546;7.906;2022-07-23T05:40:09;98199.00;;;22.40
20058;BMP180;10189;49.546;7.906;2022-07-23T05:42:38;98195.00;;;22.70
20058;BMP180;10189;49.546;7.906;2022-07-23T05:45:06;98190.00;;;23.00
20058;BMP180;10189;49.546;7.906;2022-07-23T05:47:48;98188.00;;;23.50
20058;BMP180;10189;49.546;7.906;2022-07-23T05:50:23;98190.00;;;23.40
20058;BMP180;10189;49.546;7.906;2022-07-23T05:52:56;98193.00;;;23.70
20058;BMP180;10189;49.546;7.906;2022-07-23T05:55:46;98210.00;;;23.80
20058;BMP180;10189;49.546;7.906;2022-07-23T05:58:12;98207.00;;;23.80
20058;BMP180;10189;49.546;7.906;2022-07-23T06:00:38;98203.00;;;23.90
20058;BMP180;10189;49.546;7.906;2022-07-23T06:03:04;98201.00;;;23.70
20058;BMP180;10189;49.546;7.906;2022-07-23T06:05:31;98209.00;;;23.50
20058;BMP180;10189;49.546;7.906;2022-07-23T06:07:57;98208.00;;;23.70
20058;BMP180;10189;49.546;7.906;2022-07-23T06:10:24;98213.00;;;23.80
20058;BMP180;10189;49.546;7.906;2022-07-23T06:12:51;98221.00;;;24.10
20058;BMP180;10189;49.546;7.906;2022-07-23T06:15:18;98222.00;;;24.50
20058;BMP180;10189;49.546;7.906;2022-07-23T06:17:44;98224.00;;;24.80
20058;BMP180;10189;49.546;7.906;2022-07-23T06:20:10;98222.00;;;25.10
20058;BMP180;10189;49.546;7.906;2022-07-23T06:22:38;98228.00;;;25.40
20058;BMP180;10189;49.546;7.906;2022-07-23T06:25:06;98227.00;;;25.40
20058;BMP180;10189;49.546;7.906;2022-07-23T06:27:33;98239.00;;;25.20
20058;BMP180;10189;49.546;7.906;2022-07-23T06:29:59;98239.00;;;24.90
20058;BMP180;10189;49.546;7.906;2022-07-23T06:32:25;98240.00;;;24.50
20058;BMP180;10189;49.546;7.906;2022-07-23T06:34:51;98240.00;;;24.20
20058;BMP180;10189;49.546;7.906;2022-07-23T06:37:20;98251.00;;;24.40
20058;BMP180;10189;49.546;7.906;2022-07-23T06:39:46;98249.00;;;24.60
20058;BMP180;10189;49.546;7.906;2022-07-23T06:42:12;98250.00;;;24.50
20058;BMP180;10189;49.546;7.906;2022-07-23T06:44:43;98244.00;;;24.60
20058;BMP180;10189;49.546;7.906;2022-07-23T06:47:09;98244.00;;;24.80
20058;BMP180;10189;49.546;7.906;2022-07-23T06:49:35;98241.00;;;24.80
20058;BMP180;10189;49.546;7.906;2022-07-23T06:52:01;98249.00;;;24.80
20058;BMP180;10189;49.546;7.906;2022-07-23T06:54:27;98248.00;;;24.80
20058;BMP180;10189;49.546;7.906;2022-07-23T06:56:53;98246.00;;;24.60
20058;BMP180;10189;49.546;7.906;2022-07-23T06:59:19;98241.00;;;24.60
20058;BMP180;10189;49.546;7.906;2022-07-23T07:01:45;98243.00;;;24.30
20058;BMP180;10189;49.546;7.906;2022-07-23T07:04:11;98254.00;;;24.10
20058;BMP180;10189;49.546;7.906;2022-07-23T07:06:37;98252.00;;;24.40
20058;BMP180;10189;49.546;7.906;2022-07-23T07:09:03;98244.00;;;24.70
20058;BMP180;10189;49.546;7.906;2022-07-23T07:11:29;98258.00;;;24.70
20058;BMP180;10189;49.546;7.906;2022-07-23T07:13:55;98253.00;;;24.70
20058;BMP180;10189;49.546;7.906;2022-07-23T07:16:21;98257.00;;;24.30
20058;BMP180;10189;49.546;7.906;2022-07-23T07:18:47;98266.00;;;24.60
20058;BMP180;10189;49.546;7.906;2022-07-23T07:21:13;98271.00;;;24.40
20058;BMP180;10189;49.546;7.906;2022-07-23T07:23:39;98264.00;;;24.20
20058;BMP180;10189;49.546;7.906;2022-07-23T07:26:05;98284.00;;;24.20
20058;BMP180;10189;49.546;7.906;2022-07-23T07:28:31;98295.00;;;23.90
20058;BMP180;10189;49.546;7.906;2022-07-23T07:30:57;98288.00;;;23.80
20058;BMP180;10189;49.546;7.906;2022-07-23T07:33:22;98295.00;;;23.60
20058;BMP180;10189;49.546;7.906;2022-07-23T07:35:48;98295.00;;;23.90
20058;BMP180;10189;49.546;7.906;2022-07-23T07:38:14;98292.00;;;24.30
20058;BMP180;10189;49.546;7.906;2022-07-23T07:40:40;98293.00;;;24.80
20058;BMP180;10189;49.546;7.906;2022-07-23T07:43:06;98288.00;;;25.40
20058;BMP180;10189;49.546;7.906;2022-07-23T07:45:32;98281.00;;;26.10
20058;BMP180;10189;49.546;7.906;2022-07-23T07:47:58;98286.00;;;26.00
20058;BMP180;10189;49.546;7.906;2022-07-23T07:50:24;98301.00;;;25.60
20058;BMP180;10189;49.546;7.906;2022-07-23T07:52:50;98294.00;;;25.00
20058;BMP180;10189;49.546;7.906;2022-07-23T07:55:16;98300.00;;;25.30
20058;BMP180;10189;49.546;7.906;2022-07-23T07:57:42;98306.00;;;25.50
20058;BMP180;10189;49.546;7.906;2022-07-23T08:00:10;98305.00;;;25.40
20058;BMP180;10189;49.546;7.906;2022-07-23T08:02:48;98299.00;;;25.40
20058;BMP180;10189;49.546;7.906;2022-07-23T08:05:19;98304.00;;;25.90
20058;BMP180;10189;49.546;7.906;2022-07-23T08:07:45;98305.00;;;25.40
20058;BMP180;10189;49.546;7.906;2022-07-23T08:10:11;98305.00;;;25.70
20058;BMP180;10189;49.546;7.906;2022-07-23T08:12:51;98309.00;;;25.80
20058;BMP180;10189;49.546;7.906;2022-07-23T08:15:21;98316.00;;;25.50
20058;BMP180;10189;49.546;7.906;2022-07-23T08:17:48;98317.00;;;24.80
20058;BMP180;10189;49.546;7.906;2022-07-23T08:20:18;98317.00;;;25.40
20058;BMP180;10189;49.546;7.906;2022-07-23T08:23:00;98306.00;;;25.60
20058;BMP180;10189;49.546;7.906;2022-07-23T08:25:41;98312.00;;;25.70
20058;BMP180;10189;49.546;7.906;2022-07-23T08:28:10;98306.00;;;25.80
20058;BMP180;10189;49.546;7.906;2022-07-23T08:30:39;98309.00;;;25.50
20058;BMP180;10189;49.546;7.906;2022-07-23T08:33:09;98312.00;;;26.00
20058;BMP180;10189;49.546;7.906;2022-07-23T08:35:44;98316.00;;;26.20
20058;BMP180;10189;49.546;7.906;2022-07-23T08:38:15;98304.00;;;26.40
20058;BMP180;10189;49.546;7.906;2022-07-23T08:40:46;98312.00;;;26.80
20058;BMP180;10189;49.546;7.906;2022-07-23T08:43:19;98314.00;;;27.00
20058;BMP180;10189;49.546;7.906;2022-07-23T08:45:55;98311.00;;;26.30
20058;BMP180;10189;49.546;7.906;2022-07-23T08:48:30;98308.00;;;26.50
20058;BMP180;10189;49.546;7.906;2022-07-23T08:51:02;98313.00;;;27.10
20058;BMP180;10189;49.546;7.906;2022-07-23T08:53:30;98310.00;;;27.20
20058;BMP180;10189;49.546;7.906;2022-07-23T08:55:59;98316.00;;;27.00
20058;BMP180;10189;49.546;7.906;2022-07-23T08:58:27;98314.00;;;26.60
20058;BMP180;10189;49.546;7.906;2022-07-23T09:00:54;98313.00;;;26.90
20058;BMP180;10189;49.546;7.906;2022-07-23T09:03:23;98313.00;;;27.10
20058;BMP180;10189;49.546;7.906;2022-07-23T09:05:52;98314.00;;;27.40
20058;BMP180;10189;49.546;7.906;2022-07-23T09:08:42;98308.00;;;27.70
20058;BMP180;10189;49.546;7.906;2022-07-23T09:11:17;98312.00;;;27.30
20058;BMP180;10189;49.546;7.906;2022-07-23T09:13:52;98305.00;;;27.10
20058;BMP180;10189;49.546;7.906;2022-07-23T09:16:27;98309.00;;;26.60
20058;BMP180;10189;49.546;7.906;2022-07-23T09:18:54;98307.00;;;27.00
20058;BMP180;10189;49.546;7.906;2022-07-23T09:21:27;98300.00;;;27.00
20058;BMP180;10189;49.546;7.906;2022-07-23T09:29:16;98319.00;;;27.60
20058;BMP180;10189;49.546;7.906;2022-07-23T09:32:02;98315.00;;;28.10
20058;BMP180;10189;49.546;7.906;2022-07-23T09:34:36;98312.00;;;28.10
20058;BMP180;10189;49.546;7.906;2022-07-23T09:37:17;98306.00;;;28.40
20058;BMP180;10189;49.546;7.906;2022-07-23T09:39:46;98303.00;;;28.40
20058;BMP180;10189;49.546;7.906;2022-07-23T09:42:22;98313.00;;;28.20
20058;BMP180;10189;49.546;7.906;2022-07-23T09:44:51;98305.00;;;27.70
20058;BMP180;10189;49.546;7.906;2022-07-23T09:47:18;98308.00;;;27.70
20058;BMP180;10189;49.546;7.906;2022-07-23T09:50:06;98311.00;;;27.80
20058;BMP180;10189;49.546;7.906;2022-07-23T09:52:55;98303.00;;;28.20
20058;BMP180;10189;49.546;7.906;2022-07-23T09:55:32;98304.00;;;28.40
20058;BMP180;10189;49.546;7.906;2022-07-23T09:58:08;98311.00;;;28.30
20058;BMP180;10189;49.546;7.906;2022-07-23T10:00:41;98308.00;;;28.00
20058;BMP180;10189;49.546;7.906;2022-07-23T10:03:10;98310.00;;;28.30
20058;BMP180;10189;49.546;7.906;2022-07-23T10:05:41;98312.00;;;28.70
20058;BMP180;10189;49.546;7.906;2022-07-23T10:08:31;98316.00;;;28.80
20058;BMP180;10189;49.546;7.906;2022-07-23T10:11:16;98317.00;;;28.50
20058;BMP180;10189;49.546;7.906;2022-07-23T10:13:53;98319.00;;;28.80
20058;BMP180;10189;49.546;7.906;2022-07-23T10:16:38;98322.00;;;28.80
20058;BMP180;10189;49.546;7.906;2022-07-23T10:19:04;98316.00;;;29.10
20058;BMP180;10189;49.546;7.906;2022-07-23T10:22:00;98315.00;;;29.10
20058;BMP180;10189;49.546;7.906;2022-07-23T10:36:51;98312.00;;;29.10
20058;BMP180;10189;49.546;7.906;2022-07-23T10:39:31;98310.00;;;29.20
20058;BMP180;10189;49.546;7.906;2022-07-23T10:42:15;98309.00;;;29.40
20058;BMP180;10189;49.546;7.906;2022-07-23T10:44:46;98310.00;;;28.90
20058;BMP180;10189;49.546;7.906;2022-07-23T10:47:29;98315.00;;;28.70
20058;BMP180;10189;49.546;7.906;2022-07-23T10:57:58;98326.00;;;29.30
20058;BMP180;10189;49.546;7.906;2022-07-23T11:00:26;98313.00;;;29.10
20058;BMP180;10189;49.546;7.906;2022-07-23T11:02:58;98317.00;;;29.30
20058;BMP180;10189;49.546;7.906;2022-07-23T11:05:45;98313.00;;;29.30
20058;BMP180;10189;49.546;7.906;2022-07-23T11:08:13;98316.00;;;28.90
20058;BMP180;10189;49.546;7.906;2022-07-23T11:10:49;98315.00;;;28.90
20058;BMP180;10189;49.546;7.906;2022-07-23T11:13:45;98318.00;;;29.00
20058;BMP180;10189;49.546;7.906;2022-07-23T11:16:23;98328.00;;;29.40
20058;BMP180;10189;49.546;7.906;2022-07-23T11:18:59;98312.00;;;28.80
20058;BMP180;10189;49.546;7.906;2022-07-23T11:32:19;98315.00;;;29.30
20058;BMP180;10189;49.546;7.906;2022-07-23T11:34:51;98317.00;;;29.40
20058;BMP180;10189;49.546;7.906;2022-07-23T11:37:35;98315.00;;;29.60
20058;BMP180;10189;49.546;7.906;2022-07-23T11:40:12;98308.00;;;29.80
20058;BMP180;10189;49.546;7.906;2022-07-23T11:43:00;98311.00;;;30.00
20058;BMP180;10189;49.546;7.906;2022-07-23T11:45:40;98305.00;;;30.00
20058;BMP180;10189;49.546;7.906;2022-07-23T11:48:09;98306.00;;;29.80
20058;BMP180;10189;49.546;7.906;2022-07-23T11:50:41;98301.00;;;30.00
20058;BMP180;10189;49.546;7.906;2022-07-23T11:53:07;98300.00;;;29.60
20058;BMP180;10189;49.546;7.906;2022-07-23T11:55:33;98308.00;;;30.00
20058;BMP180;10189;49.546;7.906;2022-07-23T11:57:58;98312.00;;;30.20
20058;BMP180;10189;49.546;7.906;2022-07-23T12:00:28;98301.00;;;30.50
20058;BMP180;10189;49.546;7.906;2022-07-23T12:03:00;98302.00;;;30.10
20058;BMP180;10189;49.546;7.906;2022-07-23T12:05:34;98302.00;;;30.30
20058;BMP180;10189;49.546;7.906;2022-07-23T12:08:04;98294.00;;;30.20
20058;BMP180;10189;49.546;7.906;2022-07-23T12:10:43;98294.00;;;30.40
20058;BMP180;10189;49.546;7.906;2022-07-23T12:13:13;98309.00;;;30.60
20058;BMP180;10189;49.546;7.906;2022-07-23T12:15:42;98296.00;;;30.40
20058;BMP180;10189;49.546;7.906;2022-07-23T12:18:12;98295.00;;;29.90
20058;BMP180;10189;49.546;7.906;2022-07-23T12:20:45;98288.00;;;29.90
20058;BMP180;10189;49.546;7.906;2022-07-23T12:23:15;98290.00;;;29.80
20058;BMP180;10189;49.546;7.906;2022-07-23T12:25:45;98292.00;;;29.90
20058;BMP180;10189;49.546;7.906;2022-07-23T12:28:19;98298.00;;;29.20
20058;BMP180;10189;49.546;7.906;2022-07-23T12:30:51;98297.00;;;29.60
20058;BMP180;10189;49.546;7.906;2022-07-23T12:33:36;98292.00;;;29.70
20058;BMP180;10189;49.546;7.906;2022-07-23T12:36:07;98293.00;;;29.80
20058;BMP180;10189;49.546;7.906;2022-07-23T12:38:41;98288.00;;;29.50
20058;BMP180;10189;49.546;7.906;2022-07-23T12:41:08;98291.00;;;29.60
20058;BMP180;10189;49.546;7.906;2022-07-23T12:43:41;98286.00;;;29.80
20058;BMP180;10189;49.546;7.906;2022-07-23T12:46:19;98300.00;;;30.50
20058;BMP180;10189;49.546;7.906;2022-07-23T12:53:49;98291.00;;;29.00
20058;BMP180;10189;49.546;7.906;2022-07-23T12:56:28;98298.00;;;29.00
20058;BMP180;10189;49.546;7.906;2022-07-23T13:01:35;98308.00;;;28.90
20058;BMP180;10189;49.546;7.906;2022-07-23T13:04:12;98297.00;;;29.50
20058;BMP180;10189;49.546;7.906;2022-07-23T13:06:44;98297.00;;;29.60
20058;BMP180;10189;49.546;7.906;2022-07-23T13:09:20;98297.00;;;29.70
20058;BMP180;10189;49.546;7.906;2022-07-23T13:11:48;98292.00;;;29.50
20058;BMP180;10189;49.546;7.906;2022-07-23T13:14:17;98294.00;;;29.60
20058;BMP180;10189;49.546;7.906;2022-07-23T13:16:45;98294.00;;;29.70
20058;BMP180;10189;49.546;7.906;2022-07-23T13:19:12;98307.00;;;30.20
20058;BMP180;10189;49.546;7.906;2022-07-23T13:21:42;98297.00;;;29.90
20058;BMP180;10189;49.546;7.906;2022-07-23T13:24:09;98287.00;;;29.30
20058;BMP180;10189;49.546;7.906;2022-07-23T13:26:38;98289.00;;;30.00
20058;BMP180;10189;49.546;7.906;2022-07-23T13:29:07;98293.00;;;30.50
20058;BMP180;10189;49.546;7.906;2022-07-23T13:31:35;98286.00;;;29.90
20058;BMP180;10189;49.546;7.906;2022-07-23T13:34:02;98284.00;;;30.40
20058;BMP180;10189;49.546;7.906;2022-07-23T13:36:28;98289.00;;;30.90
20058;BMP180;10189;49.546;7.906;2022-07-23T13:38:54;98285.00;;;31.40
20058;BMP180;10189;49.546;7.906;2022-07-23T13:41:20;98285.00;;;31.70
20058;BMP180;10189;49.546;7.906;2022-07-23T13:43:46;98285.00;;;31.50
20058;BMP180;10189;49.546;7.906;2022-07-23T13:46:12;98286.00;;;31.00
20058;BMP180;10189;49.546;7.906;2022-07-23T13:48:38;98291.00;;;30.90
20058;BMP180;10189;49.546;7.906;2022-07-23T13:51:04;98287.00;;;30.50
20058;BMP180;10189;49.546;7.906;2022-07-23T13:53:30;98292.00;;;30.50
20058;BMP180;10189;49.546;7.906;2022-07-23T13:55:56;98291.00;;;30.70
20058;BMP180;10189;49.546;7.906;2022-07-23T13:58:23;98293.00;;;30.80
20058;BMP180;10189;49.546;7.906;2022-07-23T14:00:52;98292.00;;;30.90
20058;BMP180;10189;49.546;7.906;2022-07-23T14:03:21;98290.00;;;30.60
20058;BMP180;10189;49.546;7.906;2022-07-23T14:05:49;98285.00;;;30.50
20058;BMP180;10189;49.546;7.906;2022-07-23T14:08:15;98294.00;;;30.60
20058;BMP180;10189;49.546;7.906;2022-07-23T14:10:41;98284.00;;;30.90
20058;BMP180;10189;49.546;7.906;2022-07-23T14:13:07;98283.00;;;30.90
20058;BMP180;10189;49.546;7.906;2022-07-23T14:15:33;98286.00;;;31.30
20058;BMP180;10189;49.546;7.906;2022-07-23T14:17:59;98273.00;;;31.60
20058;BMP180;10189;49.546;7.906;2022-07-23T14:20:25;98280.00;;;31.60
20058;BMP180;10189;49.546;7.906;2022-07-23T14:22:51;98280.00;;;31.10
20058;BMP180;10189;49.546;7.906;2022-07-23T14:25:18;98269.00;;;31.00
20058;BMP180;10189;49.546;7.906;2022-07-23T14:27:45;98270.00;;;30.90
20058;BMP180;10189;49.546;7.906;2022-07-23T14:30:12;98275.00;;;30.40
20058;BMP180;10189;49.546;7.906;2022-07-23T14:32:38;98272.00;;;30.00
20058;BMP180;10189;49.546;7.906;2022-07-23T14:35:05;98279.00;;;30.00
20058;BMP180;10189;49.546;7.906;2022-07-23T14:37:32;98273.00;;;30.60
20058;BMP180;10189;49.546;7.906;2022-07-23T14:39:58;98263.00;;;31.10
20058;BMP180;10189;49.546;7.906;2022-07-23T14:42:25;98270.00;;;30.50
20058;BMP180;10189;49.546;7.906;2022-07-23T14:44:51;98264.00;;;30.10
20058;BMP180;10189;49.546;7.906;2022-07-23T14:47:17;98268.00;;;30.40
20058;BMP180;10189;49.546;7.906;2022-07-23T14:49:43;98264.00;;;30.50
20058;BMP180;10189;49.546;7.906;2022-07-23T14:52:09;98271.00;;;30.40
20058;BMP180;10189;49.546;7.906;2022-07-23T14:54:35;98270.00;;;29.80
20058;BMP180;10189;49.546;7.906;2022-07-23T14:57:03;98278.00;;;29.50
20058;BMP180;10189;49.546;7.906;2022-07-23T14:59:30;98267.00;;;29.60
20058;BMP180;10189;49.546;7.906;2022-07-23T15:01:57;98268.00;;;29.70
20058;BMP180;10189;49.546;7.906;2022-07-23T15:04:24;98264.00;;;29.40